createdAt,value
2022-12-23T00:01:14.755Z,1.86
2022-12-23T00:03:42.883Z,1.88
2022-12-23T00:06:12.025Z,1.90
2022-12-23T00:08:40.958Z,1.92
2022-12-23T00:11:17.267Z,1.89
2022-12-23T00:14:04.497Z,1.86
2022-12-23T00:16:35.445Z,1.79
2022-12-23T00:19:03.410Z,1.78
2022-12-23T00:21:31.273Z,1.77
2022-12-23T00:23:59.549Z,1.76
2022-12-23T00:26:29.112Z,1.72
2022-12-23T00:28:59.220Z,1.71
2022-12-23T00:31:27.840Z,1.70
2022-12-23T00:33:55.766Z,1.69
2022-12-23T00:36:27.871Z,1.68
2022-12-23T00:39:16.956Z,1.67
2022-12-23T00:42:04.210Z,1.66
2022-12-23T00:44:33.086Z,1.65
2022-12-23T00:47:01.024Z,1.64
2022-12-23T00:49:44.406Z,1.65
2022-12-23T00:52:13.897Z,1.66
2022-12-23T00:54:41.961Z,1.67
2022-12-23T00:57:09.966Z,1.70
2022-12-23T00:59:37.770Z,1.73
2022-12-23T01:02:41.470Z,1.74
2022-12-23T01:05:29.310Z,1.76
2022-12-23T01:07:57.255Z,1.77
2022-12-23T01:10:25.023Z,1.77
2022-12-23T01:12:52.901Z,1.79
2022-12-23T01:15:20.686Z,1.78
2022-12-23T01:17:48.579Z,1.80
2022-12-23T01:20:16.456Z,1.81
2022-12-23T01:22:44.294Z,1.77
2022-12-23T01:25:12.233Z,1.74
2022-12-23T01:27:40.131Z,1.73
2022-12-23T01:30:08.620Z,1.72
2022-12-23T01:32:36.564Z,1.73
2022-12-23T01:35:05.837Z,1.73
2022-12-23T01:37:33.712Z,1.72
2022-12-23T01:40:02.014Z,1.70
2022-12-23T01:42:45.686Z,1.68
2022-12-23T01:45:16.384Z,1.64
2022-12-23T01:47:53.207Z,1.63
2022-12-23T01:50:24.379Z,1.60
2022-12-23T01:53:08.097Z,1.56
2022-12-23T01:55:38.723Z,1.54
2022-12-23T01:58:12.328Z,1.52
2022-12-23T02:00:59.145Z,1.48
2022-12-23T02:03:43.018Z,1.46
2022-12-23T02:06:38.643Z,1.40
2022-12-23T02:09:17.857Z,1.40
2022-12-23T02:11:59.000Z,1.36
2022-12-23T02:14:56.726Z,1.36
2022-12-23T02:17:37.099Z,1.33
2022-12-23T02:20:23.531Z,1.32
2022-12-23T02:23:12.618Z,1.28
2022-12-23T02:25:41.111Z,1.28
2022-12-23T02:28:12.158Z,1.32
2022-12-23T02:30:46.403Z,1.33
2022-12-23T02:33:25.367Z,1.31
2022-12-23T02:35:59.789Z,1.26
2022-12-23T02:38:31.321Z,1.21
2022-12-23T02:41:19.772Z,1.14
2022-12-23T02:43:51.780Z,1.04
2022-12-23T02:46:19.701Z,0.97
2022-12-23T02:48:51.862Z,0.89
2022-12-23T02:51:22.379Z,0.84
2022-12-23T02:53:52.679Z,0.78
2022-12-23T02:56:21.761Z,0.71
2022-12-23T02:58:52.177Z,0.65
2022-12-23T03:01:20.792Z,0.58
2022-12-23T03:03:49.940Z,0.51
2022-12-23T03:06:22.187Z,0.46
2022-12-23T03:08:52.360Z,0.41
2022-12-23T03:11:21.534Z,0.34
2022-12-23T03:14:08.144Z,0.30
2022-12-23T03:16:35.938Z,0.25
2022-12-23T03:19:06.257Z,0.21
2022-12-23T03:21:37.284Z,0.16
2022-12-23T03:24:32.688Z,0.11
2022-12-23T03:27:23.626Z,0.09
2022-12-23T03:29:58.016Z,0.07
2022-12-23T03:32:28.358Z,0.08
2022-12-23T03:34:59.945Z,0.07
2022-12-23T03:37:29.709Z,0.07
2022-12-23T03:40:01.264Z,0.07
2022-12-23T03:42:31.920Z,0.09
2022-12-23T03:45:36.896Z,0.14
2022-12-23T03:47:55.343Z,0.18
2022-12-23T03:50:25.569Z,0.21
2022-12-23T03:52:59.204Z,0.26
2022-12-23T03:55:30.758Z,0.28
2022-12-23T03:58:10.610Z,0.31
2022-12-23T04:00:44.922Z,0.37
2022-12-23T04:03:25.311Z,0.45
2022-12-23T04:05:57.535Z,0.49
2022-12-23T04:08:51.807Z,0.52
2022-12-23T04:11:20.207Z,0.54
2022-12-23T04:13:48.469Z,0.57
2022-12-23T04:16:16.698Z,0.56
2022-12-23T04:18:44.568Z,0.54
2022-12-23T04:21:12.457Z,0.51
2022-12-23T04:23:40.451Z,0.50
2022-12-23T04:26:08.246Z,0.47
2022-12-23T04:28:36.253Z,0.47
2022-12-23T04:31:04.225Z,0.46
2022-12-23T04:33:32.258Z,0.48
2022-12-23T04:36:00.917Z,0.50
2022-12-23T04:38:28.807Z,0.49
2022-12-23T04:40:56.863Z,0.52
2022-12-23T04:43:24.724Z,0.53
2022-12-23T04:45:52.713Z,0.49
2022-12-23T04:48:21.313Z,0.54
2022-12-23T04:50:52.170Z,0.54
2022-12-23T04:53:20.078Z,0.56
2022-12-23T04:55:52.229Z,0.58
2022-12-23T04:58:22.348Z,0.55
2022-12-23T05:00:50.293Z,0.58
2022-12-23T05:03:18.821Z,0.57
2022-12-23T05:05:49.940Z,0.53
2022-12-23T05:08:17.772Z,0.51
2022-12-23T05:10:45.721Z,0.52
2022-12-23T05:13:13.576Z,0.50
2022-12-23T05:15:43.855Z,0.51
2022-12-23T05:18:12.351Z,0.49
2022-12-23T05:20:40.749Z,0.51
2022-12-23T05:23:08.684Z,0.51
2022-12-23T05:25:37.673Z,0.50
2022-12-23T05:28:06.555Z,0.49
2022-12-23T05:30:35.067Z,0.49
2022-12-23T05:33:02.941Z,0.50
2022-12-23T05:35:30.791Z,0.50
2022-12-23T05:37:58.615Z,0.51
2022-12-23T05:40:27.554Z,0.52
2022-12-23T05:42:57.966Z,0.51
2022-12-23T05:45:26.205Z,0.51
2022-12-23T05:47:54.075Z,0.53
2022-12-23T05:50:21.900Z,0.56
2022-12-23T05:52:49.796Z,0.61
2022-12-23T05:55:17.738Z,0.63
2022-12-23T05:57:45.540Z,0.67
2022-12-23T06:00:15.267Z,0.66
2022-12-23T06:02:47.242Z,0.65
2022-12-23T06:05:18.671Z,0.62
2022-12-23T06:07:46.614Z,0.62
2022-12-23T06:10:14.421Z,0.66
2022-12-23T06:12:42.524Z,0.67
2022-12-23T06:15:10.642Z,0.69
2022-12-23T06:17:38.450Z,0.72
2022-12-23T06:20:06.674Z,0.71
2022-12-23T06:22:34.977Z,0.67
2022-12-23T06:25:03.034Z,0.62
2022-12-23T06:27:30.839Z,0.62
2022-12-23T06:29:58.696Z,0.62
2022-12-23T06:32:26.677Z,0.59
2022-12-23T06:34:54.564Z,0.57
2022-12-23T06:37:22.840Z,0.54
2022-12-23T06:39:50.851Z,0.52
2022-12-23T06:42:18.702Z,0.49
2022-12-23T06:44:47.024Z,0.49
2022-12-23T06:47:14.944Z,0.51
2022-12-23T06:49:42.785Z,0.54
2022-12-23T06:52:11.730Z,0.58
2022-12-23T06:54:39.605Z,0.66
2022-12-23T06:57:07.424Z,0.73
2022-12-23T06:59:35.364Z,0.77
2022-12-23T07:02:03.833Z,0.85
2022-12-23T07:04:32.070Z,0.88
2022-12-23T07:06:59.881Z,0.87
2022-12-23T07:09:28.015Z,0.92
2022-12-23T07:11:55.973Z,0.94
2022-12-23T07:14:24.513Z,0.95
2022-12-23T07:16:52.797Z,0.93
2022-12-23T07:19:20.698Z,0.90
2022-12-23T07:21:51.542Z,0.91
2022-12-23T07:24:19.421Z,0.94
2022-12-23T07:26:47.509Z,0.97
2022-12-23T07:29:15.441Z,0.99
2022-12-23T07:31:43.355Z,1.01
2022-12-23T07:34:11.277Z,1.07
2022-12-23T07:36:39.226Z,1.12
2022-12-23T07:39:07.572Z,1.18
2022-12-23T07:41:35.663Z,1.14
2022-12-23T07:44:07.571Z,1.17
2022-12-23T07:46:36.036Z,1.17
2022-12-23T07:49:05.637Z,1.20
2022-12-23T07:51:34.098Z,1.21
2022-12-23T07:54:02.043Z,1.22
2022-12-23T07:56:31.809Z,1.21
2022-12-23T07:59:00.524Z,1.24
2022-12-23T08:01:28.576Z,1.28
2022-12-23T08:03:57.033Z,1.32
2022-12-23T08:06:24.977Z,1.39
2022-12-23T08:08:53.049Z,1.47
2022-12-23T08:11:22.327Z,1.56
2022-12-23T08:13:50.287Z,1.64
2022-12-23T08:16:18.631Z,1.71
2022-12-23T08:18:46.688Z,1.68
2022-12-23T08:21:16.758Z,1.68
2022-12-23T08:23:47.311Z,1.73
2022-12-23T08:26:21.717Z,1.75
2022-12-23T08:28:53.408Z,1.74
2022-12-23T08:31:27.179Z,1.76
2022-12-23T08:33:56.180Z,1.82
2022-12-23T08:36:25.555Z,1.89
2022-12-23T08:38:54.378Z,2.00
2022-12-23T08:41:24.176Z,2.04
2022-12-23T08:43:53.186Z,2.14
2022-12-23T08:46:23.880Z,2.18
2022-12-23T08:48:51.979Z,2.27
2022-12-23T08:51:20.920Z,2.47
2022-12-23T08:53:49.207Z,2.66
2022-12-23T08:56:22.800Z,2.90
2022-12-23T08:58:52.832Z,3.14
2022-12-23T09:01:22.280Z,3.33
2022-12-23T09:03:50.455Z,3.50
2022-12-23T09:06:30.436Z,3.46
2022-12-23T09:08:59.225Z,3.54
2022-12-23T09:11:28.618Z,3.53
2022-12-23T09:13:58.676Z,3.64
2022-12-23T09:16:27.572Z,3.69
2022-12-23T09:18:55.874Z,3.87
2022-12-23T09:21:24.527Z,4.01
2022-12-23T09:23:52.627Z,3.96
2022-12-23T09:26:22.426Z,4.00
2022-12-23T09:28:50.545Z,4.15
2022-12-23T09:31:19.681Z,4.28
2022-12-23T09:33:49.189Z,4.37
2022-12-23T09:36:17.369Z,4.49
2022-12-23T09:38:45.410Z,4.54
2022-12-23T09:41:13.339Z,4.58
2022-12-23T09:43:46.234Z,4.54
2022-12-23T09:46:22.428Z,4.54
2022-12-23T09:49:11.614Z,4.44
2022-12-23T09:51:39.807Z,4.64
2022-12-23T09:54:14.962Z,4.59
2022-12-23T09:57:02.825Z,4.60
2022-12-23T09:59:37.046Z,4.66
2022-12-23T10:02:30.028Z,4.61
2022-12-23T10:05:05.943Z,4.63
2022-12-23T10:07:44.443Z,4.60
2022-12-23T10:10:17.747Z,4.56
2022-12-23T10:12:50.297Z,4.71
2022-12-23T10:15:21.655Z,4.70
2022-12-23T10:17:51.965Z,4.76
2022-12-23T10:20:24.248Z,4.66
2022-12-23T10:22:53.665Z,4.63
2022-12-23T10:25:29.149Z,4.70
2022-12-23T10:28:00.334Z,4.73
2022-12-23T10:33:29.029Z,4.77
2022-12-23T10:35:58.454Z,4.84
2022-12-23T10:38:36.169Z,4.81
2022-12-23T10:41:24.846Z,4.82
2022-12-23T10:43:52.802Z,4.82
2022-12-23T10:46:40.159Z,4.83
2022-12-23T10:49:15.331Z,4.77
2022-12-23T10:51:59.322Z,4.88
2022-12-23T10:54:29.626Z,4.87
2022-12-23T10:56:57.734Z,4.74
2022-12-23T10:59:28.060Z,4.77
2022-12-23T11:02:04.891Z,4.68
2022-12-23T11:04:37.442Z,4.69
2022-12-23T11:07:42.806Z,4.70
2022-12-23T11:10:13.314Z,4.74
2022-12-23T11:12:47.514Z,4.59
2022-12-23T11:15:27.486Z,4.73
2022-12-23T11:18:03.065Z,4.76
2022-12-23T11:20:32.536Z,4.89
2022-12-23T11:23:02.673Z,4.95
2022-12-23T11:25:34.909Z,4.71
2022-12-23T11:28:12.062Z,4.77
2022-12-23T11:30:56.351Z,4.78
2022-12-23T11:33:29.899Z,4.75
2022-12-23T11:36:03.968Z,4.83
2022-12-23T11:38:32.694Z,4.91
2022-12-23T11:41:01.098Z,4.96
2022-12-23T11:43:29.924Z,4.87
2022-12-23T11:46:14.642Z,4.95
2022-12-23T11:48:42.895Z,4.95
2022-12-23T11:51:10.898Z,5.02
2022-12-23T11:53:42.604Z,5.07
2022-12-23T11:56:13.719Z,5.14
2022-12-23T11:58:53.794Z,5.16
2022-12-23T12:01:23.844Z,4.98
2022-12-23T12:03:55.800Z,5.11
2022-12-23T12:06:23.891Z,5.05
2022-12-23T12:08:53.805Z,5.15
2022-12-23T12:11:42.023Z,5.12
2022-12-23T12:14:19.491Z,5.06
2022-12-23T12:16:47.629Z,5.11
2022-12-23T12:19:28.933Z,5.15
2022-12-23T12:22:00.235Z,5.17
2022-12-23T12:24:29.709Z,5.19
2022-12-23T12:27:01.412Z,5.19
2022-12-23T12:29:45.948Z,5.21
2022-12-23T12:32:22.162Z,5.17
2022-12-23T12:35:00.219Z,5.22
2022-12-23T12:37:49.907Z,5.23
2022-12-23T12:40:24.839Z,5.30
2022-12-23T12:42:57.667Z,5.30
2022-12-23T12:45:34.973Z,5.35
2022-12-23T12:48:21.156Z,5.34
2022-12-23T12:50:55.372Z,5.38
2022-12-23T12:53:24.066Z,5.37
2022-12-23T12:55:57.278Z,5.35
2022-12-23T12:58:25.664Z,5.28
2022-12-23T13:01:03.977Z,5.28
2022-12-23T13:03:45.498Z,5.25
2022-12-23T13:06:28.956Z,5.25
2022-12-23T13:08:59.920Z,5.17
2022-12-23T13:11:33.819Z,5.21
2022-12-23T13:14:08.329Z,5.20
2022-12-23T13:16:45.456Z,5.17
2022-12-23T13:19:22.807Z,5.02
2022-12-23T13:22:10.524Z,5.00
2022-12-23T13:24:50.604Z,5.03
2022-12-23T13:27:34.100Z,5.06
2022-12-23T13:30:18.259Z,5.04
2022-12-23T13:33:07.021Z,4.98
2022-12-23T13:35:45.179Z,4.94
2022-12-23T13:38:13.526Z,4.90
2022-12-23T13:41:01.014Z,4.85
2022-12-23T13:43:36.274Z,4.76
2022-12-23T13:46:09.689Z,4.82
2022-12-23T13:48:51.039Z,4.87
2022-12-23T13:51:18.875Z,4.90
2022-12-23T13:54:02.308Z,4.93
2022-12-23T13:56:42.520Z,4.96
2022-12-23T13:59:11.784Z,4.99
2022-12-23T14:01:45.532Z,4.98
2022-12-23T14:04:34.337Z,4.95
2022-12-23T14:07:22.445Z,4.93
2022-12-23T14:09:52.292Z,4.89
2022-12-23T14:12:23.637Z,4.83
2022-12-23T14:15:08.465Z,4.84
2022-12-23T14:17:52.099Z,4.83
2022-12-23T14:20:26.241Z,4.83
2022-12-23T14:23:00.261Z,4.82
2022-12-23T14:25:28.193Z,4.83
2022-12-23T14:28:15.045Z,4.83
2022-12-23T14:30:46.942Z,4.79
2022-12-23T14:33:28.880Z,4.73
2022-12-23T14:36:15.511Z,4.64
2022-12-23T14:39:03.480Z,4.58
2022-12-23T14:41:39.136Z,4.49
2022-12-23T14:44:39.248Z,4.36
2022-12-23T14:47:40.513Z,4.27
2022-12-23T14:50:29.915Z,4.18
2022-12-23T14:53:05.284Z,4.08
2022-12-23T14:55:35.476Z,4.00
2022-12-23T14:58:20.566Z,3.89
2022-12-23T15:00:57.098Z,3.79
2022-12-23T15:03:25.201Z,3.68
2022-12-23T15:05:53.687Z,3.60
2022-12-23T15:08:31.559Z,3.51
2022-12-23T15:10:59.698Z,3.44
2022-12-23T15:13:28.868Z,3.36
2022-12-23T15:16:01.238Z,3.33
2022-12-23T15:18:30.479Z,3.31
2022-12-23T15:21:10.557Z,3.28
2022-12-23T15:23:47.670Z,3.23
2022-12-23T15:26:16.540Z,3.17
2022-12-23T15:28:44.688Z,3.09
2022-12-23T15:31:35.926Z,3.01
2022-12-23T15:34:14.880Z,2.93
2022-12-23T15:36:45.777Z,2.87
2022-12-23T15:39:19.399Z,2.83
2022-12-23T15:41:48.717Z,2.80
2022-12-23T15:44:21.237Z,2.76
2022-12-23T15:46:50.731Z,2.73
2022-12-23T15:49:19.951Z,2.72
2022-12-23T15:52:18.150Z,2.73
2022-12-23T15:55:08.633Z,2.75
2022-12-23T15:57:48.063Z,2.76
2022-12-23T16:00:22.893Z,2.76
2022-12-23T16:03:01.909Z,2.75
2022-12-23T16:05:35.481Z,2.72
2022-12-23T16:08:10.886Z,2.70
2022-12-23T16:10:39.289Z,2.68
2022-12-23T16:13:18.188Z,2.67
2022-12-23T16:15:47.042Z,2.65
2022-12-23T16:18:18.182Z,2.64
2022-12-23T16:20:48.884Z,2.61
2022-12-23T16:23:17.278Z,2.58
2022-12-23T16:25:50.241Z,2.56
2022-12-23T16:28:24.350Z,2.55
2022-12-23T16:30:54.796Z,2.54
2022-12-23T16:33:37.531Z,2.53
2022-12-23T16:36:24.307Z,2.53
2022-12-23T16:38:58.731Z,2.53
2022-12-23T16:41:26.878Z,2.51
2022-12-23T16:43:55.049Z,2.51
2022-12-23T16:46:23.958Z,2.50
2022-12-23T16:48:55.621Z,2.49
2022-12-23T16:51:24.024Z,2.47
2022-12-23T16:53:53.750Z,2.46
2022-12-23T16:56:22.956Z,2.45
2022-12-23T16:58:50.815Z,2.44
2022-12-23T17:01:25.587Z,2.42
2022-12-23T17:03:57.877Z,2.42
2022-12-23T17:06:26.343Z,2.41
2022-12-23T17:08:55.049Z,2.40
2022-12-23T17:11:42.495Z,2.41
2022-12-23T17:14:29.952Z,2.43
2022-12-23T17:16:58.568Z,2.46
2022-12-23T17:19:29.413Z,2.48
2022-12-23T17:22:00.888Z,2.50
2022-12-23T17:24:30.198Z,2.51
2022-12-23T17:26:58.210Z,2.54
2022-12-23T17:29:27.357Z,2.56
2022-12-23T17:31:55.287Z,2.57
2022-12-23T17:34:25.571Z,2.56
2022-12-23T17:36:53.591Z,2.54
2022-12-23T17:39:22.331Z,2.52
2022-12-23T17:41:54.321Z,2.48
2022-12-23T17:44:22.783Z,2.45
2022-12-23T17:46:50.849Z,2.42
2022-12-23T17:49:19.091Z,2.41
2022-12-23T17:51:47.027Z,2.41
2022-12-23T17:54:25.216Z,2.40
2022-12-23T17:56:53.251Z,2.39
2022-12-23T17:59:21.713Z,2.39
2022-12-23T18:01:50.337Z,2.37
2022-12-23T18:04:18.631Z,2.36
2022-12-23T18:06:46.596Z,2.35
2022-12-23T18:09:14.504Z,2.37
2022-12-23T18:11:44.520Z,2.36
2022-12-23T18:14:15.075Z,2.38
2022-12-23T18:16:43.516Z,2.40
2022-12-23T18:19:18.582Z,2.43
2022-12-23T18:21:46.894Z,2.48
2022-12-23T18:24:15.316Z,2.50
2022-12-23T18:26:43.658Z,2.52
2022-12-23T18:29:12.879Z,2.52
2022-12-23T18:31:50.495Z,2.54
2022-12-23T18:34:25.352Z,2.55
2022-12-23T18:36:53.379Z,2.56
2022-12-23T18:39:21.391Z,2.55
2022-12-23T18:41:49.543Z,2.53
2022-12-23T18:44:19.736Z,2.48
2022-12-23T18:46:47.827Z,2.42
2022-12-23T18:49:15.879Z,2.38
2022-12-23T18:51:43.845Z,2.41
2022-12-23T18:54:15.370Z,2.40
2022-12-23T18:56:43.733Z,2.42
2022-12-23T18:59:15.669Z,2.44
2022-12-23T19:01:43.588Z,2.42
2022-12-23T19:04:11.779Z,2.45
2022-12-23T19:06:40.163Z,2.47
2022-12-23T19:09:08.401Z,2.51
2022-12-23T19:11:36.282Z,2.53
2022-12-23T19:14:04.233Z,2.54
2022-12-23T19:16:32.388Z,2.53
2022-12-23T19:19:00.245Z,2.54
2022-12-23T19:21:29.280Z,2.57
2022-12-23T19:23:58.476Z,2.60
2022-12-23T19:26:26.478Z,2.62
2022-12-23T19:28:54.383Z,2.59
2022-12-23T19:31:25.422Z,2.59
2022-12-23T19:33:54.821Z,2.63
2022-12-23T19:36:23.310Z,2.65
2022-12-23T19:38:51.780Z,2.66
2022-12-23T19:41:19.585Z,2.68
2022-12-23T19:43:47.503Z,2.67
2022-12-23T19:46:16.299Z,2.68
2022-12-23T19:48:49.519Z,2.71
2022-12-23T19:51:18.693Z,2.70
2022-12-23T19:53:49.332Z,2.62
2022-12-23T19:56:21.189Z,2.63
2022-12-23T19:58:49.637Z,2.67
2022-12-23T20:01:19.006Z,2.66
2022-12-23T20:03:48.757Z,2.59
2022-12-23T20:06:18.491Z,2.65
2022-12-23T20:08:48.444Z,2.65
2022-12-23T20:11:18.242Z,2.62
2022-12-23T20:13:46.835Z,2.68
2022-12-23T20:16:14.958Z,2.66
2022-12-23T20:18:42.888Z,2.66
2022-12-23T20:21:10.774Z,2.67
2022-12-23T20:23:38.700Z,2.70
2022-12-23T20:26:07.086Z,2.69
2022-12-23T20:28:35.150Z,2.69
2022-12-23T20:31:14.437Z,2.72
2022-12-23T20:33:43.015Z,2.76
2022-12-23T20:36:11.877Z,2.78
2022-12-23T20:38:41.136Z,2.82
2022-12-23T20:41:11.089Z,2.80
2022-12-23T20:43:39.317Z,2.84
2022-12-23T20:46:08.149Z,2.88
2022-12-23T20:48:36.148Z,2.90
2022-12-23T20:51:05.147Z,2.95
2022-12-23T20:53:34.042Z,2.94
2022-12-23T20:56:09.505Z,2.94
2022-12-23T20:58:56.040Z,2.99
2022-12-23T21:01:26.008Z,2.96
2022-12-23T21:03:53.972Z,2.99
2022-12-23T21:06:23.574Z,3.04
2022-12-23T21:08:52.563Z,3.05
2022-12-23T21:11:20.461Z,3.08
2022-12-23T21:13:48.678Z,3.08
2022-12-23T21:16:21.893Z,3.11
2022-12-23T21:18:53.384Z,3.13
2022-12-23T21:21:23.672Z,3.13
2022-12-23T21:23:53.839Z,3.15
2022-12-23T21:26:23.188Z,3.14
2022-12-23T21:28:52.041Z,3.15
2022-12-23T21:31:21.680Z,3.15
2022-12-23T21:33:50.267Z,3.14
2022-12-23T21:36:23.663Z,3.09
2022-12-23T21:38:51.835Z,3.11
2022-12-23T21:41:24.833Z,3.11
2022-12-23T21:43:52.791Z,3.11
2022-12-23T21:46:21.649Z,3.08
2022-12-23T21:48:50.383Z,3.08
2022-12-23T21:51:20.398Z,3.07
2022-12-23T21:53:51.355Z,3.06
2022-12-23T21:56:20.956Z,3.03
2022-12-23T21:58:48.801Z,2.98
2022-12-23T22:01:18.298Z,2.95
2022-12-23T22:03:50.281Z,2.91
2022-12-23T22:06:19.931Z,2.90
2022-12-23T22:08:48.170Z,2.85
2022-12-23T22:11:23.206Z,2.81
2022-12-23T22:13:52.067Z,2.80
2022-12-23T22:16:21.974Z,2.81
2022-12-23T22:18:50.583Z,2.77
2022-12-23T22:21:19.486Z,2.76
2022-12-23T22:23:48.019Z,2.75
2022-12-23T22:26:25.138Z,2.79
2022-12-23T22:28:55.230Z,2.72
2022-12-23T22:31:29.256Z,2.73
2022-12-23T22:33:57.082Z,2.74
2022-12-23T22:36:25.163Z,2.71
2022-12-23T22:38:54.530Z,2.72
2022-12-23T22:41:23.139Z,2.72
2022-12-23T22:43:50.927Z,2.73
2022-12-23T22:46:18.948Z,2.71
2022-12-23T22:48:47.122Z,2.66
2022-12-23T22:51:16.365Z,2.61
2022-12-23T22:53:44.308Z,2.57
2022-12-23T22:56:13.101Z,2.59
2022-12-23T22:58:41.175Z,2.62
2022-12-23T23:01:19.330Z,2.64
2022-12-23T23:03:47.376Z,2.62
2022-12-23T23:06:15.170Z,2.63
2022-12-23T23:08:43.083Z,2.62
2022-12-23T23:11:10.951Z,2.50
2022-12-23T23:13:38.799Z,2.53
2022-12-23T23:16:06.938Z,2.58
2022-12-23T23:18:35.227Z,2.55
2022-12-23T23:21:03.507Z,2.58
2022-12-23T23:23:31.374Z,2.54
2022-12-23T23:25:59.322Z,2.57
2022-12-23T23:28:27.144Z,2.59
2022-12-23T23:31:16.734Z,2.59
2022-12-23T23:33:42.917Z,2.53
2022-12-23T23:36:10.801Z,2.55
2022-12-23T23:38:38.613Z,2.50
2022-12-23T23:41:06.471Z,2.47
2022-12-23T23:43:34.249Z,2.50
2022-12-23T23:46:02.709Z,2.47
2022-12-23T23:48:30.607Z,2.45
2022-12-23T23:51:06.189Z,2.45
2022-12-23T23:53:34.180Z,2.45
2022-12-23T23:56:02.912Z,2.46
2022-12-23T23:58:30.786Z,2.48
